createdAt,value
2022-10-13T00:00:30.265Z,10.85
2022-10-13T00:03:17.060Z,10.57
2022-10-13T00:06:09.311Z,10.77
2022-10-13T00:08:56.625Z,10.95
2022-10-13T00:11:42.491Z,10.70
2022-10-13T00:14:28.600Z,11.00
2022-10-13T00:17:14.337Z,11.38
2022-10-13T00:20:00.123Z,11.50
2022-10-13T00:22:45.603Z,11.00
2022-10-13T00:25:31.182Z,11.38
2022-10-13T00:28:19.378Z,11.35
2022-10-13T00:31:22.537Z,11.65
2022-10-13T00:34:08.933Z,10.77
2022-10-13T00:36:54.490Z,10.85
2022-10-13T00:39:40.153Z,10.52
2022-10-13T00:42:27.089Z,10.90
2022-10-13T00:45:30.065Z,10.95
2022-10-13T00:48:16.983Z,11.07
2022-10-13T00:51:02.835Z,11.10
2022-10-13T00:53:49.604Z,10.95
2022-10-13T00:56:37.369Z,10.93
2022-10-13T00:59:29.140Z,11.67
2022-10-13T01:02:15.766Z,11.18
2022-10-13T01:05:03.879Z,10.75
2022-10-13T01:07:51.417Z,11.00
2022-10-13T01:10:46.441Z,12.00
2022-10-13T01:13:38.081Z,11.48
2022-10-13T01:16:42.421Z,11.63
2022-10-13T01:19:52.459Z,11.77
2022-10-13T01:22:53.638Z,11.02
2022-10-13T01:25:45.471Z,10.98
2022-10-13T01:28:39.986Z,10.77
2022-10-13T01:31:48.052Z,10.88
2022-10-13T01:34:44.265Z,11.38
2022-10-13T01:37:45.292Z,11.00
2022-10-13T01:40:37.494Z,10.43
2022-10-13T01:43:31.559Z,11.75
2022-10-13T01:46:23.104Z,10.57
2022-10-13T01:49:16.276Z,10.52
2022-10-13T01:52:11.045Z,10.95
2022-10-13T01:54:56.418Z,11.75
2022-10-13T01:57:44.400Z,11.30
2022-10-13T02:00:43.894Z,11.40
2022-10-13T02:03:48.738Z,11.45
2022-10-13T02:06:46.535Z,11.48
2022-10-13T02:09:47.815Z,11.05
2022-10-13T02:12:44.064Z,11.32
2022-10-13T02:15:45.079Z,10.93
2022-10-13T02:18:35.829Z,10.70
2022-10-13T02:21:25.458Z,11.70
2022-10-13T02:24:14.686Z,10.90
2022-10-13T02:27:00.579Z,11.23
2022-10-13T02:29:55.178Z,10.33
2022-10-13T02:32:44.841Z,11.48
2022-10-13T02:35:31.125Z,11.05
2022-10-13T02:38:21.792Z,11.85
2022-10-13T02:41:08.137Z,12.20
2022-10-13T02:43:53.887Z,11.98
2022-10-13T02:46:39.808Z,11.85
2022-10-13T02:49:26.314Z,11.80
2022-10-13T02:52:12.584Z,10.82
2022-10-13T02:55:00.733Z,11.07
2022-10-13T02:57:47.043Z,11.00
2022-10-13T03:00:33.420Z,12.13
2022-10-13T03:03:19.959Z,11.77
2022-10-13T03:06:08.222Z,11.48
2022-10-13T03:08:54.765Z,11.73
2022-10-13T03:11:40.952Z,11.95
2022-10-13T03:14:27.844Z,11.75
2022-10-13T03:17:13.815Z,11.38
2022-10-13T03:19:59.691Z,12.20
2022-10-13T03:22:49.524Z,11.95
2022-10-13T03:25:36.328Z,11.93
2022-10-13T03:28:23.409Z,11.38
2022-10-13T03:31:12.821Z,11.68
2022-10-13T03:33:58.228Z,11.77
2022-10-13T03:36:44.593Z,11.85
2022-10-13T03:39:30.576Z,12.23
2022-10-13T03:42:18.147Z,12.10
2022-10-13T03:45:07.150Z,12.35
2022-10-13T03:47:55.228Z,11.88
2022-10-13T03:50:41.686Z,12.52
2022-10-13T03:53:27.615Z,12.47
2022-10-13T03:56:16.550Z,12.50
2022-10-13T03:59:12.775Z,12.10
2022-10-13T04:01:58.126Z,12.13
2022-10-13T04:04:43.730Z,12.32
2022-10-13T04:07:29.464Z,12.90
2022-10-13T04:10:15.389Z,12.38
2022-10-13T04:13:02.277Z,11.63
2022-10-13T04:15:47.816Z,11.88
2022-10-13T04:18:33.964Z,12.18
2022-10-13T04:21:20.750Z,13.10
2022-10-13T04:24:07.154Z,12.10
2022-10-13T04:26:53.009Z,12.38
2022-10-13T04:29:39.258Z,12.45
2022-10-13T04:32:25.547Z,11.70
2022-10-13T04:35:11.680Z,12.10
2022-10-13T04:37:58.042Z,12.37
2022-10-13T04:40:43.652Z,12.18
2022-10-13T04:43:29.594Z,11.90
2022-10-13T04:46:21.550Z,11.45
2022-10-13T04:49:08.566Z,12.35
2022-10-13T04:51:57.484Z,12.25
2022-10-13T04:54:43.568Z,12.73
2022-10-13T04:57:29.462Z,13.15
2022-10-13T05:00:15.450Z,12.43
2022-10-13T05:03:02.164Z,12.57
2022-10-13T05:05:48.465Z,12.70
2022-10-13T05:08:34.685Z,12.38
2022-10-13T05:11:21.297Z,12.20
2022-10-13T05:14:07.823Z,11.95
2022-10-13T05:16:54.050Z,11.98
2022-10-13T05:19:39.841Z,12.25
2022-10-13T05:22:28.227Z,12.93
2022-10-13T05:25:14.393Z,12.45
2022-10-13T05:28:00.184Z,13.00
2022-10-13T05:30:46.193Z,11.88
2022-10-13T05:33:31.839Z,12.57
2022-10-13T05:36:21.493Z,11.75
2022-10-13T05:39:10.224Z,12.68
2022-10-13T05:41:56.533Z,12.80
2022-10-13T05:44:42.588Z,12.20
2022-10-13T05:47:28.487Z,12.03
2022-10-13T05:50:15.723Z,12.50
2022-10-13T05:53:01.760Z,12.20
2022-10-13T05:55:48.446Z,11.88
2022-10-13T05:58:41.241Z,12.40
2022-10-13T06:01:29.279Z,11.70
2022-10-13T06:04:30.213Z,12.07
2022-10-13T06:07:17.634Z,12.00
2022-10-13T06:10:03.634Z,11.55
2022-10-13T06:12:49.247Z,12.60
2022-10-13T06:15:34.735Z,12.53
2022-10-13T06:18:21.879Z,12.25
2022-10-13T06:21:07.635Z,12.27
2022-10-13T06:23:53.857Z,12.90
2022-10-13T06:26:39.561Z,12.77
2022-10-13T06:29:25.584Z,12.75
2022-10-13T06:32:11.585Z,12.68
2022-10-13T06:34:57.986Z,12.27
2022-10-13T06:37:46.357Z,12.05
2022-10-13T06:40:32.545Z,12.27
2022-10-13T06:43:18.144Z,11.93
2022-10-13T06:46:03.835Z,12.05
2022-10-13T06:48:50.906Z,11.60
2022-10-13T06:51:36.816Z,11.75
2022-10-13T06:54:23.052Z,11.85
2022-10-13T06:57:09.047Z,12.02
2022-10-13T06:59:56.041Z,11.93
2022-10-13T07:02:41.609Z,11.30
2022-10-13T07:05:27.050Z,11.48
2022-10-13T07:08:13.995Z,11.32
2022-10-13T07:11:06.216Z,11.90
2022-10-13T07:13:54.232Z,13.00
2022-10-13T07:16:40.567Z,11.57
2022-10-13T07:19:26.776Z,12.30
2022-10-13T07:22:12.911Z,11.65
2022-10-13T07:24:58.714Z,11.80
2022-10-13T07:27:44.738Z,12.65
2022-10-13T07:30:30.729Z,12.20
2022-10-13T07:33:17.159Z,12.10
2022-10-13T07:36:03.489Z,12.33
2022-10-13T07:38:49.541Z,12.52
2022-10-13T07:41:36.588Z,12.57
2022-10-13T07:44:22.383Z,12.98
2022-10-13T07:47:08.558Z,12.73
2022-10-13T07:49:55.824Z,11.88
2022-10-13T07:52:41.762Z,12.35
2022-10-13T07:55:30.717Z,12.52
2022-10-13T07:58:17.285Z,12.93
2022-10-13T08:01:03.809Z,12.93
2022-10-13T08:03:50.897Z,12.40
2022-10-13T08:09:27.535Z,13.77
2022-10-13T08:12:13.555Z,13.90
2022-10-13T08:15:01.833Z,12.98
2022-10-13T08:17:51.251Z,12.43
2022-10-13T08:20:43.881Z,12.50
2022-10-13T08:23:30.438Z,12.52
2022-10-13T08:26:26.344Z,12.63
2022-10-13T08:29:22.431Z,11.77
2022-10-13T08:32:09.122Z,12.88
2022-10-13T08:34:55.033Z,13.13
2022-10-13T08:37:42.302Z,12.90
2022-10-13T08:40:28.349Z,13.53
2022-10-13T08:43:23.280Z,13.68
2022-10-13T08:46:09.328Z,13.95
2022-10-13T08:48:57.253Z,13.82
2022-10-13T08:51:44.347Z,14.10
2022-10-13T08:54:30.597Z,13.90
2022-10-13T08:57:17.907Z,13.80
2022-10-13T09:00:05.317Z,14.13
2022-10-13T09:02:52.962Z,14.25
2022-10-13T09:05:48.645Z,14.13
2022-10-13T09:08:42.816Z,14.73
2022-10-13T09:11:35.197Z,14.57
2022-10-13T09:14:41.666Z,13.68
2022-10-13T09:17:28.518Z,14.88
2022-10-13T09:20:24.148Z,15.25
2022-10-13T09:23:19.935Z,14.17
2022-10-13T09:26:16.248Z,14.52
2022-10-13T09:29:15.340Z,14.32
2022-10-13T09:32:19.337Z,14.15
2022-10-13T09:35:37.964Z,14.85
2022-10-13T09:38:26.104Z,14.95
2022-10-13T09:41:21.888Z,14.65
2022-10-13T09:44:24.238Z,14.67
2022-10-13T09:47:22.039Z,15.13
2022-10-13T09:50:22.967Z,15.23
2022-10-13T09:53:31.380Z,15.25
2022-10-13T09:56:26.820Z,15.73
2022-10-13T09:59:36.856Z,15.23
2022-10-13T10:02:48.460Z,14.98
2022-10-13T10:05:55.618Z,16.20
2022-10-13T10:09:02.803Z,14.60
2022-10-13T10:11:51.907Z,15.13
2022-10-13T10:14:39.309Z,15.57
2022-10-13T10:17:41.975Z,15.85
2022-10-13T10:20:54.297Z,14.53
2022-10-13T10:23:48.843Z,15.97
2022-10-13T10:26:57.645Z,15.40
2022-10-13T10:29:47.089Z,14.55
2022-10-13T10:33:04.562Z,14.50
2022-10-13T10:36:40.428Z,14.52
2022-10-13T10:39:48.466Z,14.25
2022-10-13T10:42:56.894Z,14.00
2022-10-13T10:45:44.738Z,13.85
2022-10-13T10:48:38.201Z,14.60
2022-10-13T10:51:33.057Z,12.55
2022-10-13T10:54:39.805Z,13.02
2022-10-13T10:57:38.076Z,12.25
2022-10-13T11:00:24.755Z,12.15
2022-10-13T11:03:20.023Z,12.40
2022-10-13T11:06:13.131Z,11.85
2022-10-13T11:08:58.522Z,12.20
2022-10-13T11:11:44.532Z,12.05
2022-10-13T11:14:36.500Z,11.68
2022-10-13T11:17:30.863Z,10.82
2022-10-13T11:20:22.083Z,11.00
2022-10-13T11:23:30.751Z,10.93
2022-10-13T11:26:43.322Z,10.50
2022-10-13T11:29:54.554Z,10.52
2022-10-13T11:32:54.980Z,9.88
2022-10-13T11:35:40.515Z,9.60
2022-10-13T11:38:36.265Z,9.93
2022-10-13T11:41:30.371Z,10.65
2022-10-13T11:47:40.793Z,10.32
2022-10-13T11:51:04.903Z,10.23
2022-10-13T11:54:12.609Z,10.98
2022-10-13T11:56:59.072Z,10.27
2022-10-13T11:59:54.653Z,10.88
2022-10-13T12:02:53.645Z,10.70
2022-10-13T12:05:40.441Z,9.10
2022-10-13T12:08:29.393Z,7.22
2022-10-13T12:11:26.176Z,6.82
2022-10-13T12:14:25.886Z,8.30
2022-10-13T12:17:31.511Z,7.88
2022-10-13T12:20:24.408Z,6.32
2022-10-13T12:23:17.930Z,6.20
2022-10-13T12:26:03.993Z,9.30
2022-10-13T12:28:56.226Z,7.97
2022-10-13T12:31:51.206Z,7.80
2022-10-13T12:34:37.496Z,6.47
2022-10-13T12:37:28.725Z,5.40
2022-10-13T12:40:17.817Z,7.68
2022-10-13T12:43:05.370Z,7.20
2022-10-13T12:45:52.235Z,6.93
2022-10-13T12:48:38.656Z,6.90
2022-10-13T12:51:28.190Z,7.97
2022-10-13T12:54:27.019Z,8.15
2022-10-13T12:57:35.413Z,8.63
2022-10-13T13:00:26.551Z,8.10
2022-10-13T13:03:23.375Z,8.97
2022-10-13T13:06:22.267Z,8.90
2022-10-13T13:09:34.965Z,8.38
2022-10-13T13:12:26.898Z,8.68
2022-10-13T13:15:25.997Z,7.97
2022-10-13T13:18:26.686Z,8.70
2022-10-13T13:21:14.495Z,9.38
2022-10-13T13:24:01.531Z,9.32
2022-10-13T13:26:50.749Z,9.02
2022-10-13T13:29:37.488Z,9.55
2022-10-13T13:32:25.497Z,9.15
2022-10-13T13:35:12.096Z,9.40
2022-10-13T13:37:58.293Z,9.00
2022-10-13T13:40:44.370Z,9.38
2022-10-13T13:43:31.646Z,10.27
2022-10-13T13:46:21.144Z,10.27
2022-10-13T13:49:06.781Z,10.27
2022-10-13T13:51:53.637Z,10.43
2022-10-13T13:54:39.631Z,9.65
2022-10-13T13:57:25.577Z,10.18
2022-10-13T14:00:14.012Z,10.52
2022-10-13T14:02:59.927Z,10.13
2022-10-13T14:05:45.416Z,10.90
2022-10-13T14:08:42.387Z,10.18
2022-10-13T14:11:28.500Z,11.73
2022-10-13T14:14:14.127Z,11.35
2022-10-13T14:17:01.574Z,11.45
2022-10-13T14:19:48.207Z,10.57
2022-10-13T14:22:34.300Z,10.93
2022-10-13T14:25:20.114Z,10.32
2022-10-13T14:28:06.386Z,11.15
2022-10-13T14:30:52.837Z,9.57
2022-10-13T14:33:39.260Z,10.07
2022-10-13T14:36:25.500Z,11.87
2022-10-13T14:39:11.586Z,11.38
2022-10-13T14:41:57.578Z,11.55
2022-10-13T14:44:43.379Z,11.77
2022-10-13T14:47:29.287Z,11.38
2022-10-13T14:50:15.564Z,11.53
2022-10-13T14:53:03.400Z,11.35
2022-10-13T14:55:52.579Z,12.20
2022-10-13T14:58:38.305Z,11.13
2022-10-13T15:01:24.906Z,11.30
2022-10-13T15:04:11.249Z,10.82
2022-10-13T15:06:57.434Z,12.07
2022-10-13T15:09:53.030Z,12.23
2022-10-13T15:12:50.159Z,12.20
2022-10-13T15:15:35.871Z,11.65
2022-10-13T15:18:22.888Z,12.18
2022-10-13T15:21:12.594Z,12.18
2022-10-13T15:23:58.787Z,12.10
2022-10-13T15:26:44.538Z,12.10
2022-10-13T15:29:30.542Z,12.43
2022-10-13T15:32:18.643Z,11.88
2022-10-13T15:35:09.794Z,12.20
2022-10-13T15:37:59.373Z,12.25
2022-10-13T15:40:46.433Z,12.23
2022-10-13T15:43:32.719Z,12.43
2022-10-13T15:46:23.526Z,11.88
2022-10-13T15:49:09.339Z,11.63
2022-10-13T15:51:55.781Z,11.17
2022-10-13T15:54:41.388Z,11.93
2022-10-13T15:57:26.970Z,11.25
2022-10-13T16:00:14.989Z,11.60
2022-10-13T16:03:04.337Z,11.60
2022-10-13T16:05:49.773Z,11.95
2022-10-13T16:08:40.038Z,11.52
2022-10-13T16:11:26.577Z,10.93
2022-10-13T16:14:12.601Z,11.38
2022-10-13T16:17:00.659Z,11.55
2022-10-13T16:19:46.441Z,11.20
2022-10-13T16:22:32.910Z,12.40
2022-10-13T16:25:18.496Z,11.52
2022-10-13T16:28:04.289Z,11.98
2022-10-13T16:30:50.298Z,11.55
2022-10-13T16:33:36.778Z,12.00
2022-10-13T16:36:22.846Z,11.85
2022-10-13T16:39:10.034Z,11.75
2022-10-13T16:41:58.188Z,11.68
2022-10-13T16:44:44.245Z,11.82
2022-10-13T16:47:30.160Z,11.93
2022-10-13T16:50:15.993Z,11.48
2022-10-13T16:53:01.440Z,12.00
2022-10-13T16:55:47.524Z,11.93
2022-10-13T16:58:34.170Z,11.60
2022-10-13T17:01:23.154Z,12.10
2022-10-13T17:04:08.613Z,11.30
2022-10-13T17:06:55.428Z,11.23
2022-10-13T17:09:42.888Z,10.95
2022-10-13T17:12:28.628Z,10.88
2022-10-13T17:15:14.715Z,12.13
2022-10-13T17:18:01.290Z,11.63
2022-10-13T17:20:58.237Z,12.75
2022-10-13T17:23:48.397Z,12.10
2022-10-13T17:26:35.021Z,12.75
2022-10-13T17:29:20.616Z,11.80
2022-10-13T17:32:06.279Z,11.43
2022-10-13T17:34:52.081Z,12.77
2022-10-13T17:37:37.974Z,13.25
2022-10-13T17:40:24.428Z,13.45
2022-10-13T17:43:10.373Z,12.38
2022-10-13T17:46:31.026Z,13.52
2022-10-13T17:49:13.952Z,13.38
2022-10-13T17:51:59.720Z,11.98
2022-10-13T17:54:45.484Z,12.25
2022-10-13T17:57:31.613Z,12.27
2022-10-13T18:00:21.454Z,13.10
2022-10-13T18:03:09.181Z,12.90
2022-10-13T18:05:55.237Z,12.38
2022-10-13T18:08:41.588Z,12.75
2022-10-13T18:11:27.036Z,12.83
2022-10-13T18:14:12.933Z,12.55
2022-10-13T18:17:02.272Z,12.10
2022-10-13T18:19:49.360Z,12.63
2022-10-13T18:22:35.001Z,12.60
2022-10-13T18:25:24.454Z,12.90
2022-10-13T18:28:10.267Z,12.77
2022-10-13T18:31:01.880Z,12.27
2022-10-13T18:33:48.113Z,20.08
2022-10-13T18:36:35.269Z,44.50
2022-10-13T18:39:29.202Z,15.27
2022-10-13T18:42:15.303Z,14.70
2022-10-13T18:45:02.182Z,14.95
2022-10-13T18:47:51.390Z,13.65
2022-10-13T18:50:38.360Z,13.55
2022-10-13T18:53:25.221Z,14.02
2022-10-13T18:56:24.194Z,12.90
2022-10-13T18:59:10.946Z,13.20
2022-10-13T19:01:56.638Z,13.43
2022-10-13T19:04:43.661Z,12.43
2022-10-13T19:07:29.542Z,13.32
2022-10-13T19:10:17.339Z,14.13
2022-10-13T19:13:03.754Z,13.60
2022-10-13T19:15:49.918Z,13.80
2022-10-13T19:18:36.344Z,13.15
2022-10-13T19:21:23.731Z,13.13
2022-10-13T19:24:10.461Z,12.90
2022-10-13T19:26:56.671Z,13.77
2022-10-13T19:29:42.586Z,13.90
2022-10-13T19:32:28.906Z,13.43
2022-10-13T19:35:15.235Z,13.60
2022-10-13T19:38:01.022Z,13.60
2022-10-13T19:40:49.684Z,15.40
2022-10-13T19:43:36.452Z,14.38
2022-10-13T19:46:22.647Z,13.25
2022-10-13T19:49:10.635Z,13.80
2022-10-13T19:52:02.651Z,13.98
2022-10-13T19:54:48.940Z,14.05
2022-10-13T19:57:34.884Z,13.65
2022-10-13T20:00:20.720Z,43.23
2022-10-13T20:03:06.532Z,15.75
2022-10-13T20:05:54.597Z,15.93
2022-10-13T20:08:40.537Z,15.32
2022-10-13T20:11:27.385Z,16.08
2022-10-13T20:14:14.209Z,15.45
2022-10-13T20:17:00.609Z,13.35
2022-10-13T20:19:46.289Z,14.60
2022-10-13T20:22:32.932Z,14.18
2022-10-13T20:25:19.934Z,13.48
2022-10-13T20:28:06.295Z,13.77
2022-10-13T20:30:52.152Z,14.13
2022-10-13T20:33:39.537Z,14.73
2022-10-13T20:36:26.437Z,13.73
2022-10-13T20:39:12.654Z,14.25
2022-10-13T20:41:58.559Z,14.38
2022-10-13T20:44:44.902Z,15.10
2022-10-13T20:47:30.881Z,14.80
2022-10-13T20:50:17.075Z,14.77
2022-10-13T20:53:04.427Z,15.65
2022-10-13T20:56:00.485Z,15.20
2022-10-13T20:58:47.376Z,15.65
2022-10-13T21:01:33.567Z,14.82
2022-10-13T21:04:19.741Z,15.40
2022-10-13T21:07:08.808Z,15.85
2022-10-13T21:09:54.913Z,15.00
2022-10-13T21:12:40.809Z,16.25
2022-10-13T21:15:27.685Z,15.47
2022-10-13T21:18:16.044Z,15.73
2022-10-13T21:21:04.385Z,16.30
2022-10-13T21:23:54.878Z,14.43
2022-10-13T21:26:41.824Z,14.75
2022-10-13T21:29:32.602Z,16.10
2022-10-13T21:32:19.418Z,15.57
2022-10-13T21:35:06.220Z,15.30
2022-10-13T21:37:52.472Z,16.03
2022-10-13T21:40:38.374Z,15.33
2022-10-13T21:43:26.018Z,15.48
2022-10-13T21:46:18.602Z,15.45
2022-10-13T21:49:05.784Z,15.65
2022-10-13T21:51:51.642Z,15.63
2022-10-13T21:54:37.842Z,15.85
2022-10-13T21:57:23.742Z,16.13
2022-10-13T22:00:10.016Z,15.50
2022-10-13T22:02:58.861Z,15.55
2022-10-13T22:05:44.925Z,15.82
2022-10-13T22:08:38.327Z,16.83
2022-10-13T22:11:33.652Z,17.37
2022-10-13T22:14:24.352Z,18.42
2022-10-13T22:17:11.014Z,17.63
2022-10-13T22:19:57.409Z,18.58
2022-10-13T22:22:43.226Z,19.10
2022-10-13T22:25:28.654Z,17.50
2022-10-13T22:28:14.674Z,17.80
2022-10-13T22:31:12.689Z,18.50
2022-10-13T22:33:59.461Z,18.75
2022-10-13T22:36:45.548Z,18.33
2022-10-13T22:39:32.090Z,17.15
2022-10-13T22:42:27.998Z,17.60
2022-10-13T22:45:13.916Z,18.60
2022-10-13T22:47:59.427Z,18.45
2022-10-13T22:50:45.616Z,18.63
2022-10-13T22:53:32.583Z,17.42
2022-10-13T22:56:20.770Z,18.05
2022-10-13T22:59:08.568Z,18.75
2022-10-13T23:01:53.939Z,18.30
2022-10-13T23:04:39.869Z,18.50
2022-10-13T23:07:26.230Z,17.40
2022-10-13T23:10:12.038Z,18.25
2022-10-13T23:13:03.621Z,17.63
2022-10-13T23:15:49.676Z,17.95
2022-10-13T23:18:35.705Z,18.75
2022-10-13T23:21:23.935Z,18.20
2022-10-13T23:24:12.181Z,19.17
2022-10-13T23:27:00.666Z,18.30
2022-10-13T23:29:46.006Z,17.08
2022-10-13T23:32:32.770Z,16.60
2022-10-13T23:35:18.690Z,18.58
2022-10-13T23:38:04.699Z,17.85
2022-10-13T23:40:54.902Z,17.37
2022-10-13T23:43:40.963Z,18.25
2022-10-13T23:46:26.538Z,17.13
2022-10-13T23:49:13.708Z,16.92
2022-10-13T23:51:59.296Z,17.50
2022-10-13T23:54:45.437Z,18.13
2022-10-13T23:57:32.226Z,17.70
